ENVF weather

Veslefrikk B Platform
Norway

Public forecast

Using degrees Celsius for public forecast. Weather courtesy of forecast.io.

METAR (pilot weather report)

Closest report is Oseberg A Platform, 17.6 nm (32.6 km) S. Retrieved 2019/05/27 00:50 UTC (28 minutes ago):

ENOA 270050Z 36021KT 9999 BKN030 08/02 Q1001 W///S3

TAF (pilot weather forecast)

Forecast is more than 12 hours old.

Closest forecast is Oseberg A Platform, 17.6 nm (32.6 km) S. Retrieved 2019/05/26 00:57 UTC (1 day ago):

TAF ENOA 262300Z 2700/2724 36020KT 9999 -SHRA FEW020 BKN030